This is the latest recevied weather packets stored in our database for station/object IZ1UKX-13. If no packets are shown the sender has not sent any weather packets the latest 10 day(s).
| Time | Temp. | Humidity | Pressure | Rain* | Wind** | Luminosity | Snow |
|---|---|---|---|---|---|---|---|
| 1788008603 | 30.56° C | 48% | 1021 hPa | 0 mm | - | 0 W/m² | - |
| 1788008303 | 30.56° C | 47% | 1021 hPa | 0 mm | - | 0 W/m² | - |
| 1788008003 | 30.56° C | 48% | 1021 hPa | 0 mm | - | 0 W/m² | - |
| 1788007703 | 31.11° C | 44% | 1021 hPa | 0 mm | - | 0 W/m² | - |
| 1788007403 | 30.56° C | 45% | 1021 hPa | 0 mm | - | 0 W/m² | - |
| 1788007103 | 30.56° C | 46% | 1021 hPa | 0 mm | - | 0 W/m² | - |
| 1788006803 | 30.56° C | 46% | 1021 hPa | 0 mm | - | 0 W/m² | - |
| 1788006503 | 30.56° C | 46% | 1021 hPa | 0 mm | - | 0 W/m² | - |
| 1788006203 | 30° C | 46% | 1021 hPa | 0 mm | - | 0 W/m² | - |
| 1788005903 | 30° C | 47% | 1021 hPa | 0 mm | - | 0 W/m² | - |
| 1788005603 | 30.56° C | 46% | 1021 hPa | 0 mm | - | 0 W/m² | - |
| 1788005303 | 30.56° C | 48% | 1021 hPa | 0 mm | - | 0 W/m² | - |
| 1788005003 | 30.56° C | 49% | 1021 hPa | 0 mm | - | 0 W/m² | - |
| 1788004703 | 30° C | 50% | 1021 hPa | 0 mm | - | 0 W/m² | - |
| 1788004403 | 29.44° C | 51% | 1021 hPa | 0 mm | - | 0 W/m² | - |
| 1788004103 | 28.89° C | 52% | 1021.4 hPa | 0 mm | - | 0 W/m² | - |
| 1788003803 | 28.89° C | 52% | 1021.4 hPa | 0 mm | - | 0 W/m² | - |
| 1788003777 | 28.89° C | 53% | 1021.4 hPa | 0 mm | - | 0 W/m² | - |
| 1788003477 | 28.89° C | 53% | 1021.4 hPa | 0 mm | - | 0 W/m² | - |
| 1788003177 | 28.33° C | 54% | 1021.4 hPa | 0 mm | - | 0 W/m² | - |
| 1788002877 | 28.33° C | 55% | 1021.4 hPa | 0 mm | - | 0 W/m² | - |
| 1788002577 | 28.33° C | 55% | 1021.4 hPa | 0 mm | - | 0 W/m² | - |
| 1788002277 | 28.33° C | 55% | 1021.4 hPa | 0 mm | - | 0 W/m² | - |
| 1788001977 | 28.89° C | 53% | 1021.4 hPa | 0 mm | - | 0 W/m² | - |
| 1788001677 | 29.44° C | 53% | 1021.4 hPa | 0 mm | - | 0 W/m² | - |
* Rain latest hour (hover to see other rain measurements)
** Current wind speed in m/s (hover to see current wind gust speed)